createdAt,value
2019-04-25T00:02:51.229Z,18.26
2019-04-25T00:07:53.496Z,18.13
2019-04-25T00:12:55.570Z,18.14
2019-04-25T00:17:57.719Z,18.11
2019-04-25T00:23:09.786Z,18.11
2019-04-25T00:28:11.932Z,18.01
2019-04-25T00:33:14.061Z,17.89
2019-04-25T00:38:16.126Z,17.89
2019-04-25T00:43:18.208Z,17.85
2019-04-25T00:48:20.257Z,17.66
2019-04-25T00:53:22.311Z,17.51
2019-04-25T00:58:43.080Z,17.42
2019-04-25T01:03:45.370Z,17.36
2019-04-25T01:08:47.787Z,17.31
2019-04-25T01:13:50.442Z,17.18
2019-04-25T01:18:54.807Z,17.23
2019-04-25T01:23:57.769Z,17.27
2019-04-25T01:28:59.967Z,17.25
2019-04-25T01:34:04.405Z,17.25
2019-04-25T01:39:25.788Z,17.09
2019-04-25T01:44:34.282Z,17.07
2019-04-25T01:49:36.373Z,17.05
2019-04-25T01:54:38.463Z,17.09
2019-04-25T01:59:40.582Z,17.00
2019-04-25T02:04:44.284Z,16.94
2019-04-25T02:15:05.957Z,16.90
2019-04-25T02:20:06.872Z,16.72
2019-04-25T02:25:08.956Z,16.60
2019-04-25T02:30:12.336Z,16.52
2019-04-25T02:35:14.925Z,16.49
2019-04-25T02:40:19.037Z,16.34
2019-04-25T02:45:36.972Z,16.17
2019-04-25T02:50:58.095Z,16.09
2019-04-25T02:56:01.762Z,16.03
2019-04-25T03:01:16.219Z,15.97
2019-04-25T03:06:11.880Z,15.89
2019-04-25T03:11:14.928Z,15.92
2019-04-25T03:16:17.436Z,15.98
2019-04-25T03:21:25.097Z,16.01
2019-04-25T03:26:37.855Z,15.96
2019-04-25T03:31:31.222Z,15.85
2019-04-25T03:36:33.798Z,15.80
2019-04-25T03:41:36.029Z,15.74
2019-04-25T03:46:38.112Z,15.70
2019-04-25T03:51:40.203Z,15.70
2019-04-25T03:56:53.190Z,15.67
2019-04-25T04:01:48.633Z,15.81
2019-04-25T04:06:50.682Z,15.80
2019-04-25T04:11:53.468Z,15.76
2019-04-25T04:17:23.745Z,15.74
2019-04-25T04:22:34.054Z,15.76
2019-04-25T04:27:36.350Z,15.78
2019-04-25T04:32:38.434Z,15.85
2019-04-25T04:37:40.466Z,15.89
2019-04-25T04:42:43.525Z,15.88
2019-04-25T04:47:45.942Z,15.87
2019-04-25T04:52:48.038Z,15.72
2019-04-25T04:57:50.214Z,15.72
2019-04-25T05:03:02.333Z,15.77
2019-04-25T05:08:11.068Z,15.74
2019-04-25T05:13:15.382Z,15.80
2019-04-25T05:18:33.037Z,15.73
2019-04-25T05:23:21.275Z,15.77
2019-04-25T05:28:24.562Z,18.68
2019-04-25T05:33:26.867Z,21.59
2019-04-25T05:38:28.967Z,23.65
2019-04-25T05:43:31.400Z,25.27
2019-04-25T05:48:34.086Z,26.67
2019-04-25T05:53:36.385Z,27.63
2019-04-25T05:58:38.496Z,28.59
2019-04-25T06:03:40.579Z,29.00
2019-04-25T06:08:49.754Z,29.59
2019-04-25T06:14:04.694Z,30.34
2019-04-25T06:19:25.559Z,30.55
2019-04-25T06:24:48.184Z,30.08
2019-04-25T06:29:59.128Z,30.25
2019-04-25T06:34:59.052Z,29.17
2019-04-25T06:40:01.123Z,28.69
2019-04-25T06:45:26.689Z,27.15
2019-04-25T06:50:29.086Z,26.13
2019-04-25T06:55:32.287Z,25.82
2019-04-25T07:00:41.145Z,25.69
2019-04-25T07:05:40.699Z,25.31
2019-04-25T07:10:44.649Z,25.46
2019-04-25T07:15:46.865Z,25.35
2019-04-25T07:20:48.994Z,24.97
2019-04-25T07:26:03.926Z,24.77
2019-04-25T07:31:23.366Z,24.91
2019-04-25T07:36:26.653Z,25.10
2019-04-25T07:41:29.442Z,25.06
2019-04-25T07:46:32.812Z,25.12
2019-04-25T07:51:35.604Z,25.62
2019-04-25T07:56:37.973Z,25.95
2019-04-25T08:01:40.018Z,26.18
2019-04-25T08:06:42.193Z,26.08
2019-04-25T08:11:44.248Z,26.20
2019-04-25T08:16:49.334Z,26.23
2019-04-25T08:21:51.777Z,26.26
2019-04-25T08:26:53.908Z,26.26
2019-04-25T08:31:56.023Z,26.56
2019-04-25T08:36:58.490Z,26.49
2019-04-25T08:42:00.577Z,26.69
2019-04-25T08:47:04.391Z,26.41
2019-04-25T08:52:06.887Z,26.35
2019-04-25T08:57:16.880Z,26.25
2019-04-25T09:02:38.906Z,26.13
2019-04-25T09:07:41.091Z,26.14
2019-04-25T09:12:44.270Z,25.90
2019-04-25T09:17:47.285Z,25.82
2019-04-25T09:22:49.579Z,25.75
2019-04-25T09:27:51.682Z,25.85
2019-04-25T09:32:53.779Z,25.95
2019-04-25T09:37:55.862Z,25.91
2019-04-25T09:42:58.121Z,25.74
2019-04-25T09:48:06.782Z,25.71
2019-04-25T09:53:21.019Z,25.67
2019-04-25T09:58:17.049Z,25.61
2019-04-25T10:03:19.155Z,25.50
2019-04-25T10:08:21.296Z,25.46
2019-04-25T10:13:25.085Z,25.50
2019-04-25T10:18:27.434Z,25.58
2019-04-25T10:23:31.890Z,25.46
2019-04-25T10:28:34.117Z,25.33
2019-04-25T10:33:36.353Z,25.56
2019-04-25T10:38:40.168Z,25.63
2019-04-25T10:43:42.399Z,25.92
2019-04-25T10:48:44.481Z,25.79
2019-04-25T10:53:47.037Z,25.92
2019-04-25T10:58:49.455Z,25.93
2019-04-25T11:04:05.688Z,26.04
2019-04-25T11:09:15.076Z,26.13
2019-04-25T11:14:17.175Z,26.14
2019-04-25T11:19:19.725Z,26.09
2019-04-25T11:24:23.502Z,26.17
2019-04-25T11:29:25.864Z,26.11
2019-04-25T11:34:28.353Z,26.21
2019-04-25T11:39:37.472Z,26.11
2019-04-25T11:44:39.543Z,26.17
2019-04-25T11:49:42.096Z,26.37
2019-04-25T11:54:46.760Z,26.26
2019-04-25T11:59:50.503Z,25.95
2019-04-25T12:04:54.904Z,26.05
2019-04-25T12:09:56.763Z,25.98
2019-04-25T12:14:58.820Z,25.98
2019-04-25T12:20:00.916Z,25.89
2019-04-25T12:25:04.645Z,25.96
2019-04-25T12:30:07.373Z,25.95
2019-04-25T12:35:09.875Z,26.00
2019-04-25T12:40:14.085Z,26.04
2019-04-25T12:45:45.655Z,26.13
2019-04-25T12:50:48.032Z,26.06
2019-04-25T12:55:50.106Z,26.03
2019-04-25T13:00:54.962Z,25.96
2019-04-25T13:05:56.369Z,25.98
2019-04-25T13:11:07.925Z,26.02
2019-04-25T13:16:04.366Z,25.99
2019-04-25T13:21:07.670Z,26.01
2019-04-25T13:26:09.873Z,26.09
2019-04-25T13:31:23.303Z,26.10
2019-04-25T13:36:25.458Z,26.11
2019-04-25T13:41:27.557Z,26.22
2019-04-25T13:46:29.779Z,26.18
2019-04-25T13:51:31.816Z,26.12
2019-04-25T13:56:37.047Z,26.16
2019-04-25T14:01:38.289Z,26.18
2019-04-25T14:06:40.411Z,26.15
2019-04-25T14:11:44.093Z,26.14
2019-04-25T14:17:09.824Z,26.16
2019-04-25T14:22:11.892Z,26.24
2019-04-25T14:27:14.759Z,26.19
2019-04-25T14:32:17.656Z,26.16
2019-04-25T14:37:19.700Z,26.16
2019-04-25T14:42:24.493Z,26.17
2019-04-25T14:47:27.465Z,26.16
2019-04-25T14:52:29.694Z,26.20
2019-04-25T14:57:32.593Z,26.24
2019-04-25T15:02:35.163Z,26.22
2019-04-25T15:07:37.728Z,26.23
2019-04-25T15:12:39.913Z,26.28
2019-04-25T15:17:46.375Z,26.30
2019-04-25T15:22:46.058Z,26.27
2019-04-25T15:27:48.158Z,26.31
2019-04-25T15:32:51.921Z,26.37
2019-04-25T15:38:00.687Z,26.40
2019-04-25T15:43:15.457Z,26.45
2019-04-25T15:48:17.725Z,26.44
2019-04-25T15:53:21.771Z,26.42
2019-04-25T15:58:24.024Z,26.41
2019-04-25T16:03:27.144Z,26.42
2019-04-25T16:08:30.936Z,26.48
2019-04-25T16:13:33.173Z,26.46
2019-04-25T16:18:35.366Z,26.39
2019-04-25T16:23:37.558Z,26.39
2019-04-25T16:28:39.635Z,26.35
2019-04-25T16:33:42.145Z,26.27
2019-04-25T16:38:44.421Z,26.11
2019-04-25T16:43:50.186Z,26.01
2019-04-25T16:48:52.323Z,25.99
2019-04-25T16:53:54.399Z,25.86
2019-04-25T16:58:56.521Z,25.76
2019-04-25T17:03:58.673Z,25.69
2019-04-25T17:09:02.601Z,25.58
2019-04-25T17:14:13.523Z,25.49
2019-04-25T17:19:23.233Z,25.42
2019-04-25T17:24:25.368Z,25.35
2019-04-25T17:29:27.550Z,25.26
2019-04-25T17:34:48.077Z,25.18
2019-04-25T17:39:53.766Z,25.12
2019-04-25T17:44:55.866Z,25.01
2019-04-25T17:50:00.121Z,24.92
2019-04-25T17:55:02.211Z,24.88
2019-04-25T18:00:09.493Z,24.85
2019-04-25T18:05:11.595Z,24.74
2019-04-25T18:10:14.390Z,24.70
2019-04-25T18:15:21.871Z,24.64
2019-04-25T18:20:25.853Z,24.53
2019-04-25T18:26:00.912Z,24.47
2019-04-25T18:31:03.929Z,24.40
2019-04-25T18:36:25.064Z,24.33
2019-04-25T18:41:32.176Z,24.26
2019-04-25T18:46:40.521Z,24.19
2019-04-25T18:51:55.202Z,24.17
2019-04-25T18:57:06.254Z,24.07
2019-04-25T19:02:26.941Z,24.01
2019-04-25T19:07:30.128Z,23.92
2019-04-25T19:12:32.158Z,23.77
2019-04-25T19:17:34.236Z,23.70
2019-04-25T19:22:36.421Z,23.65
2019-04-25T19:27:38.511Z,23.54
2019-04-25T19:32:41.636Z,23.52
2019-04-25T19:37:43.950Z,23.45
2019-04-25T19:42:49.039Z,23.44
2019-04-25T19:47:51.539Z,23.38
2019-04-25T19:52:53.862Z,23.38
2019-04-25T19:57:55.951Z,23.33
2019-04-25T20:03:21.167Z,23.27
2019-04-25T20:08:37.396Z,23.18
2019-04-25T20:13:39.483Z,23.10
2019-04-25T20:18:41.556Z,23.04
2019-04-25T20:23:45.366Z,22.95
2019-04-25T20:28:48.342Z,22.93
2019-04-25T20:34:01.419Z,22.86
2019-04-25T20:38:55.382Z,22.83
2019-04-25T20:43:57.536Z,22.74
2019-04-25T20:48:59.614Z,22.71
2019-04-25T20:54:01.669Z,22.61
2019-04-25T20:59:03.824Z,22.56
2019-04-25T21:04:13.288Z,22.46
2019-04-25T21:09:13.048Z,22.40
2019-04-25T21:14:46.369Z,22.41
2019-04-25T21:19:48.948Z,22.33
2019-04-25T21:24:51.915Z,22.23
2019-04-25T21:29:54.090Z,22.19
2019-04-25T21:34:57.147Z,22.10
2019-04-25T21:40:23.058Z,22.07
2019-04-25T21:45:25.442Z,22.06
2019-04-25T21:50:27.914Z,21.97
2019-04-25T21:55:30.325Z,21.90
2019-04-25T22:00:52.450Z,21.89
2019-04-25T22:05:56.863Z,21.78
2019-04-25T22:10:59.892Z,21.68
2019-04-25T22:16:01.964Z,21.60
2019-04-25T22:21:04.687Z,21.54
2019-04-25T22:26:07.062Z,21.51
2019-04-25T22:31:14.191Z,21.47
2019-04-25T22:36:18.789Z,21.41
2019-04-25T22:41:20.841Z,21.45
2019-04-25T22:46:27.148Z,21.36
2019-04-25T22:51:27.321Z,21.35
2019-04-25T22:56:29.682Z,21.43
2019-04-25T23:01:41.754Z,21.40
2019-04-25T23:06:44.111Z,21.34
2019-04-25T23:11:46.179Z,21.35
2019-04-25T23:16:51.129Z,21.32
2019-04-25T23:21:53.224Z,21.31
2019-04-25T23:27:02.374Z,21.26
2019-04-25T23:32:05.772Z,21.31
2019-04-25T23:37:08.948Z,21.26
2019-04-25T23:42:11.567Z,21.17
2019-04-25T23:47:14.359Z,21.14
2019-04-25T23:52:17.216Z,21.07
2019-04-25T23:57:19.425Z,20.99
